Time;durP1;ratioP1;P1;durP2;ratioP2;P2;SDS_P1;SDS_P2;PMS_P1;PMS_P2;Temp;Humidity;BMP_temperature;BMP_pressure;BME280_temperature;BME280_humidity;BME280_pressure;Samples;Min_cycle;Max_cycle;Signal;HPM_P1;HPM_P2
2022/05/12 00:00:24;;;;;;;4.35;1.17;;;;;;;;;;4849559;29;20025;-83
2022/05/12 00:02:49;;;;;;;3.83;1.27;;;;;;;;;;4834380;29;20037;-87
2022/05/12 00:05:16;;;;;;;4.43;1.25;;;;;;;;;;4851142;29;20029;-82
2022/05/12 00:07:43;;;;;;;5.05;1.27;;;;;;;;;;4848746;29;20290;-82
2022/05/12 00:10:10;;;;;;;2.10;1.20;;;;;;;;;;4846719;29;20057;-83
2022/05/12 00:12:36;;;;;;;4.68;1.45;;;;;;;;;;4838690;29;20499;-86
2022/05/12 00:15:05;;;;;;;3.90;1.30;;;;;;;;;;4839306;29;20503;-82
2022/05/12 00:17:31;;;;;;;3.70;1.20;;;;;;;;;;4849388;29;20061;-83
2022/05/12 00:19:56;;;;;;;2.95;1.25;;;;;;;;;;4842405;29;20022;-81
2022/05/12 00:22:21;;;;;;;2.55;1.10;;;;;;;;;;4849632;29;20042;-84
2022/05/12 00:24:47;;;;;;;4.05;1.30;;;;;;;;;;4853930;29;20557;-87
2022/05/12 00:27:12;;;;;;;3.30;1.23;;;;;;;;;;4838660;29;20033;-83
2022/05/12 00:29:37;;;;;;;3.70;1.33;;;;;;;;;;4836930;29;20124;-81
2022/05/12 00:32:03;;;;;;;4.60;1.40;;;;;;;;;;4854749;29;20069;-86
2022/05/12 00:34:28;;;;;;;3.95;1.30;;;;;;;;;;4838727;29;20040;-87
2022/05/12 00:36:54;;;;;;;4.43;1.40;;;;;;;;;;4846681;29;20033;-87
2022/05/12 00:39:19;;;;;;;3.72;1.38;;;;;;;;;;4847491;29;20549;-83
2022/05/12 00:41:44;;;;;;;3.35;1.20;;;;;;;;;;4836238;29;20072;-83
2022/05/12 00:44:13;;;;;;;3.58;1.40;;;;;;;;;;4833943;29;20081;-84
2022/05/12 00:46:41;;;;;;;3.08;1.10;;;;;;;;;;4848253;29;20054;-86
2022/05/12 00:49:14;;;;;;;3.08;1.20;;;;;;;;;;4848054;29;20044;-84
2022/05/12 00:51:54;;;;;;;3.92;1.45;;;;;;;;;;4853389;29;20090;-82
2022/05/12 00:54:30;;;;;;;3.65;1.20;;;;;;;;;;4850706;29;20115;-85
2022/05/12 00:56:58;;;;;;;2.97;1.20;;;;;;;;;;4838596;29;20037;-85
2022/05/12 00:59:28;;;;;;;4.32;1.30;;;;;;;;;;4845948;29;20043;-81
2022/05/12 01:01:55;;;;;;;3.90;1.20;;;;;;;;;;4847438;29;20037;-87
2022/05/12 01:04:22;;;;;;;2.63;1.08;;;;;;;;;;4849843;29;20059;-82
2022/05/12 01:06:49;;;;;;;4.78;1.40;;;;;;;;;;4835939;29;20040;-87
2022/05/12 01:09:14;;;;;;;4.43;1.30;;;;;;;;;;4836463;29;20037;-83
2022/05/12 01:11:40;;;;;;;3.40;1.25;;;;;;;;;;4834327;29;20042;-85
2022/05/12 01:14:07;;;;;;;2.40;1.17;;;;;;;;;;4850437;29;20033;-84
2022/05/12 01:16:44;;;;;;;2.35;1.00;;;;;;;;;;4852430;29;20060;-84
2022/05/12 01:19:14;;;;;;;2.20;1.10;;;;;;;;;;4835651;29;20144;-85
2022/05/12 01:21:40;;;;;;;2.45;1.10;;;;;;;;;;4837853;29;20073;-87
2022/05/12 01:24:06;;;;;;;2.25;1.00;;;;;;;;;;4851846;29;20057;-85
2022/05/12 01:26:33;;;;;;;2.28;1.08;;;;;;;;;;4836766;29;20124;-84
2022/05/12 01:28:59;;;;;;;2.55;1.00;;;;;;;;;;4850960;29;20037;-85
2022/05/12 01:31:24;;;;;;;2.47;1.10;;;;;;;;;;4853738;29;20364;-83
2022/05/12 01:33:51;;;;;;;1.77;1.00;;;;;;;;;;4838618;29;20099;-83
2022/05/12 01:36:18;;;;;;;3.97;1.17;;;;;;;;;;4855918;29;20029;-87
2022/05/12 01:38:43;;;;;;;3.50;1.30;;;;;;;;;;4839420;29;20067;-87
2022/05/12 01:41:09;;;;;;;3.47;1.40;;;;;;;;;;4843681;29;20447;-87
2022/05/12 01:43:34;;;;;;;2.97;1.23;;;;;;;;;;4843836;29;20032;-82
2022/05/12 01:46:01;;;;;;;2.80;1.15;;;;;;;;;;4851072;29;20508;-86
2022/05/12 01:48:26;;;;;;;2.85;1.30;;;;;;;;;;4839744;29;20396;-84
2022/05/12 01:50:52;;;;;;;2.25;1.17;;;;;;;;;;4838430;29;20033;-87
2022/05/12 01:53:18;;;;;;;2.70;1.20;;;;;;;;;;4841927;29;20116;-87
2022/05/12 01:55:47;;;;;;;1.70;1.15;;;;;;;;;;4840962;29;20480;-86
2022/05/12 01:58:12;;;;;;;3.28;1.60;;;;;;;;;;4852517;29;20096;-86
2022/05/12 02:00:38;;;;;;;2.67;1.10;;;;;;;;;;4853349;29;20452;-82
2022/05/12 02:03:03;;;;;;;2.35;1.10;;;;;;;;;;4851907;29;20086;-85
2022/05/12 02:05:30;;;;;;;2.92;1.20;;;;;;;;;;4854998;29;20044;-84
2022/05/12 02:07:56;;;;;;;2.55;1.30;;;;;;;;;;4838714;29;20445;-86
2022/05/12 02:10:25;;;;;;;2.53;1.30;;;;;;;;;;4837362;29;20029;-84
2022/05/12 02:12:50;;;;;;;2.95;1.35;;;;;;;;;;4839746;29;20025;-84
2022/05/12 02:15:16;;;;;;;2.38;1.38;;;;;;;;;;4838260;29;20070;-87
2022/05/12 02:17:41;;;;;;;4.32;1.17;;;;;;;;;;4840660;29;20033;-84
2022/05/12 02:20:08;;;;;;;4.20;1.60;;;;;;;;;;4854414;29;20560;-82
2022/05/12 02:22:33;;;;;;;5.20;1.60;;;;;;;;;;4841447;29;20082;-83
2022/05/12 02:24:59;;;;;;;2.05;1.10;;;;;;;;;;4850836;29;20033;-83
2022/05/12 02:27:24;;;;;;;2.40;1.20;;;;;;;;;;4840979;29;20513;-86
2022/05/12 02:29:50;;;;;;;3.10;1.30;;;;;;;;;;4837080;29;20453;-87
2022/05/12 02:32:15;;;;;;;3.33;1.33;;;;;;;;;;4853624;29;21991;-85
2022/05/12 02:34:41;;;;;;;1.80;1.17;;;;;;;;;;4839908;29;20025;-85
2022/05/12 02:37:08;;;;;;;3.85;1.35;;;;;;;;;;4842048;29;20413;-86
2022/05/12 02:39:37;;;;;;;2.55;0.90;;;;;;;;;;4837885;29;20704;-88
2022/05/12 02:42:07;;;;;;;2.75;1.10;;;;;;;;;;4841062;29;20488;-82
2022/05/12 02:44:33;;;;;;;2.65;1.00;;;;;;;;;;4837013;29;20033;-82
2022/05/12 02:46:58;;;;;;;1.45;0.95;;;;;;;;;;4839796;29;20037;-82
2022/05/12 02:49:24;;;;;;;2.60;0.90;;;;;;;;;;4843649;29;20026;-88
2022/05/12 02:51:50;;;;;;;3.15;1.10;;;;;;;;;;4841589;29;20126;-85
2022/05/12 02:54:17;;;;;;;1.45;0.90;;;;;;;;;;4839428;29;20029;-83
2022/05/12 02:56:42;;;;;;;2.50;1.10;;;;;;;;;;4849340;29;20037;-83
2022/05/12 02:59:09;;;;;;;2.67;0.93;;;;;;;;;;4851840;29;20021;-85
2022/05/12 03:01:34;;;;;;;6.13;1.35;;;;;;;;;;4851453;29;20032;-86
2022/05/12 03:03:59;;;;;;;1.92;1.00;;;;;;;;;;4836717;29;20021;-87
2022/05/12 03:06:26;;;;;;;2.50;1.02;;;;;;;;;;4839904;29;20153;-82
2022/05/12 03:08:53;;;;;;;2.75;0.88;;;;;;;;;;4836355;29;20059;-86
2022/05/12 03:11:19;;;;;;;2.90;0.98;;;;;;;;;;4835960;29;20029;-82
2022/05/12 03:13:45;;;;;;;2.72;1.02;;;;;;;;;;4837448;29;20037;-87
2022/05/12 03:16:11;;;;;;;1.92;1.00;;;;;;;;;;4839270;29;20117;-83
2022/05/12 03:18:37;;;;;;;2.08;1.00;;;;;;;;;;4851987;29;20492;-86
2022/05/12 03:21:03;;;;;;;1.83;0.90;;;;;;;;;;4838814;29;20026;-83
2022/05/12 03:23:28;;;;;;;4.00;1.00;;;;;;;;;;4848111;29;20044;-83
2022/05/12 03:25:54;;;;;;;3.28;1.10;;;;;;;;;;4851626;29;20075;-82
2022/05/12 03:28:19;;;;;;;2.40;1.20;;;;;;;;;;4838450;29;20038;-86
2022/05/12 03:30:45;;;;;;;2.15;1.10;;;;;;;;;;4850311;29;20033;-83
2022/05/12 03:33:10;;;;;;;3.20;1.30;;;;;;;;;;4841250;29;20209;-82
2022/05/12 03:35:36;;;;;;;4.70;1.02;;;;;;;;;;4847541;29;20037;-82
2022/05/12 03:38:03;;;;;;;3.53;1.17;;;;;;;;;;4829117;29;20033;-82
2022/05/12 03:40:30;;;;;;;4.43;1.60;;;;;;;;;;4854684;29;20028;-82
2022/05/12 03:42:58;;;;;;;2.78;1.33;;;;;;;;;;4838089;29;20064;-87
2022/05/12 03:45:27;;;;;;;3.30;1.30;;;;;;;;;;4850061;29;20101;-84
2022/05/12 03:47:55;;;;;;;3.78;1.10;;;;;;;;;;4852921;29;20531;-87
2022/05/12 03:50:24;;;;;;;4.88;1.65;;;;;;;;;;4838083;29;20029;-83
2022/05/12 03:52:52;;;;;;;2.28;1.20;;;;;;;;;;4837622;29;20038;-88
2022/05/12 03:55:21;;;;;;;3.20;1.58;;;;;;;;;;4848600;29;20033;-83
2022/05/12 03:57:48;;;;;;;2.85;1.30;;;;;;;;;;4845899;29;20032;-83
2022/05/12 04:00:18;;;;;;;3.63;1.38;;;;;;;;;;4850102;29;20109;-83
2022/05/12 04:02:44;;;;;;;4.95;1.40;;;;;;;;;;4835165;29;20025;-87
2022/05/12 04:05:09;;;;;;;2.72;1.20;;;;;;;;;;4850968;29;20034;-86
2022/05/12 04:07:34;;;;;;;2.47;1.25;;;;;;;;;;4851995;29;20504;-83
2022/05/12 04:10:01;;;;;;;5.60;1.77;;;;;;;;;;4839185;29;20094;-83
2022/05/12 04:12:27;;;;;;;4.03;1.63;;;;;;;;;;4835368;29;20065;-82
2022/05/12 04:14:52;;;;;;;3.97;1.63;;;;;;;;;;4840725;29;20068;-83
2022/05/12 04:17:18;;;;;;;3.80;1.25;;;;;;;;;;4853366;29;20045;-87
2022/05/12 04:19:44;;;;;;;3.25;1.50;;;;;;;;;;4855274;29;20028;-83
2022/05/12 04:22:10;;;;;;;4.07;1.48;;;;;;;;;;4841793;29;20030;-88
2022/05/12 04:24:36;;;;;;;5.15;1.80;;;;;;;;;;4833726;29;20090;-87
2022/05/12 04:27:01;;;;;;;3.47;1.40;;;;;;;;;;4853589;29;20476;-83
2022/05/12 04:29:27;;;;;;;5.22;1.70;;;;;;;;;;4839960;29;20037;-82
2022/05/12 04:31:52;;;;;;;6.13;1.67;;;;;;;;;;4838888;29;20086;-86
2022/05/12 04:37:02;;;;;;;3.72;1.95;;;;;;;;;;4847859;29;20331;-85
2022/05/12 04:39:30;;;;;;;3.88;1.50;;;;;;;;;;4849438;29;20050;-83
2022/05/12 04:41:55;;;;;;;4.80;1.90;;;;;;;;;;4836296;29;20037;-87
2022/05/12 04:44:20;;;;;;;4.15;1.50;;;;;;;;;;4846853;29;20194;-87
2022/05/12 04:46:46;;;;;;;4.32;1.70;;;;;;;;;;4837298;29;20036;-82
2022/05/12 04:49:13;;;;;;;5.88;1.85;;;;;;;;;;4851025;29;20028;-82
2022/05/12 04:51:39;;;;;;;5.97;2.10;;;;;;;;;;4850472;29;20458;-82
2022/05/12 04:54:12;;;;;;;6.63;2.13;;;;;;;;;;4843533;29;20073;-83
2022/05/12 04:56:39;;;;;;;6.45;2.05;;;;;;;;;;4832263;29;20035;-84
2022/05/12 04:59:07;;;;;;;6.50;2.40;;;;;;;;;;4835424;29;20421;-88
2022/05/12 05:01:33;;;;;;;7.75;3.10;;;;;;;;;;4834563;29;20029;-82
2022/05/12 05:04:00;;;;;;;5.93;2.40;;;;;;;;;;4836855;29;20453;-87
2022/05/12 05:06:27;;;;;;;4.88;2.60;;;;;;;;;;4833613;29;20062;-82
2022/05/12 05:08:59;;;;;;;6.32;2.60;;;;;;;;;;4841407;29;20705;-87
2022/05/12 05:11:24;;;;;;;6.25;2.80;;;;;;;;;;4850571;29;20033;-83
2022/05/12 05:13:50;;;;;;;7.80;2.80;;;;;;;;;;4838759;29;20029;-82
2022/05/12 05:16:17;;;;;;;6.25;3.10;;;;;;;;;;4832153;29;20048;-86
2022/05/12 05:18:43;;;;;;;7.53;2.88;;;;;;;;;;4854922;29;20034;-88
2022/05/12 05:21:10;;;;;;;6.85;2.92;;;;;;;;;;4852346;29;20065;-88
2022/05/12 05:23:35;;;;;;;9.93;3.22;;;;;;;;;;4854594;29;20058;-83
2022/05/12 05:26:01;;;;;;;6.93;3.40;;;;;;;;;;4832159;29;21290;-82
2022/05/12 05:28:26;;;;;;;9.50;3.90;;;;;;;;;;4838926;29;20037;-83
2022/05/12 05:30:54;;;;;;;8.07;3.55;;;;;;;;;;4852774;29;20105;-86
2022/05/12 05:33:28;;;;;;;11.20;4.30;;;;;;;;;;4843389;29;20050;-83
2022/05/12 05:35:57;;;;;;;11.15;4.22;;;;;;;;;;4846416;29;20033;-84
2022/05/12 05:38:23;;;;;;;10.27;4.70;;;;;;;;;;4833561;29;20466;-83
2022/05/12 05:40:50;;;;;;;9.50;3.75;;;;;;;;;;4834109;29;20035;-87
2022/05/12 05:43:15;;;;;;;7.45;4.13;;;;;;;;;;4847961;29;20041;-84
2022/05/12 05:45:41;;;;;;;12.07;5.00;;;;;;;;;;4829189;29;20033;-83
2022/05/12 05:48:07;;;;;;;11.70;4.82;;;;;;;;;;4845346;29;20037;-85
2022/05/12 05:53:30;;;;;;;11.23;4.75;;;;;;;;;;4849796;29;20157;-82
2022/05/12 05:55:58;;;;;;;10.85;4.85;;;;;;;;;;4832818;29;20058;-87
2022/05/12 05:58:27;;;;;;;9.90;4.63;;;;;;;;;;4849056;29;20033;-83
2022/05/12 06:00:54;;;;;;;10.18;4.63;;;;;;;;;;4853237;29;20046;-86
2022/05/12 06:03:20;;;;;;;8.57;4.40;;;;;;;;;;4834719;29;20032;-86
2022/05/12 06:05:46;;;;;;;8.35;4.82;;;;;;;;;;4848829;29;20029;-83
2022/05/12 06:08:14;;;;;;;9.48;5.18;;;;;;;;;;4839658;29;20032;-84
2022/05/12 06:10:40;;;;;;;9.68;4.85;;;;;;;;;;4841099;29;20022;-88
2022/05/12 06:13:08;;;;;;;8.95;4.75;;;;;;;;;;4838495;29;20036;-87
2022/05/12 06:15:34;;;;;;;10.48;4.90;;;;;;;;;;4839142;29;20117;-86
2022/05/12 06:18:09;;;;;;;10.15;4.75;;;;;;;;;;4841845;29;20078;-87
2022/05/12 06:20:36;;;;;;;8.68;5.00;;;;;;;;;;4854812;29;20017;-85
2022/05/12 06:23:02;;;;;;;9.45;4.32;;;;;;;;;;4835666;29;20025;-88
2022/05/12 06:25:28;;;;;;;9.32;4.20;;;;;;;;;;4836901;29;20022;-84
2022/05/12 06:27:54;;;;;;;11.60;4.97;;;;;;;;;;4837788;29;20121;-83
2022/05/12 06:30:20;;;;;;;11.38;4.97;;;;;;;;;;4837943;29;20033;-88
2022/05/12 06:32:46;;;;;;;10.35;4.70;;;;;;;;;;4839170;29;20045;-83
2022/05/12 06:35:14;;;;;;;8.45;4.55;;;;;;;;;;4854519;29;20036;-85
2022/05/12 06:37:39;;;;;;;8.52;4.28;;;;;;;;;;4848259;29;20065;-86
2022/05/12 06:40:05;;;;;;;8.70;3.78;;;;;;;;;;4840733;29;20514;-82
2022/05/12 06:42:31;;;;;;;9.25;4.20;;;;;;;;;;4839529;29;20389;-83
2022/05/12 06:44:57;;;;;;;8.23;4.45;;;;;;;;;;4840757;29;20041;-82
2022/05/12 06:47:22;;;;;;;8.20;4.05;;;;;;;;;;4834636;29;20042;-86
2022/05/12 06:49:50;;;;;;;7.43;3.72;;;;;;;;;;4851082;29;20375;-83
2022/05/12 06:52:16;;;;;;;9.18;4.20;;;;;;;;;;4850998;29;20077;-83
2022/05/12 06:54:44;;;;;;;7.45;3.83;;;;;;;;;;4840075;29;20034;-87
2022/05/12 06:57:21;;;;;;;9.27;4.45;;;;;;;;;;4852742;29;20461;-90
2022/05/12 06:59:47;;;;;;;10.55;4.60;;;;;;;;;;4853056;29;20121;-86
2022/05/12 07:02:15;;;;;;;6.95;3.63;;;;;;;;;;4852324;29;20120;-87
2022/05/12 07:04:42;;;;;;;8.75;3.75;;;;;;;;;;4840069;29;20075;-83
2022/05/12 07:07:07;;;;;;;8.13;3.60;;;;;;;;;;4851693;29;20037;-82
2022/05/12 07:09:33;;;;;;;6.93;3.50;;;;;;;;;;4851081;29;20094;-88
2022/05/12 07:11:59;;;;;;;7.15;3.47;;;;;;;;;;4843753;29;20472;-83
2022/05/12 07:14:25;;;;;;;9.45;3.67;;;;;;;;;;4857267;29;20492;-83
2022/05/12 07:16:50;;;;;;;6.22;3.55;;;;;;;;;;4859725;29;20089;-84
2022/05/12 07:19:17;;;;;;;7.50;4.03;;;;;;;;;;4856797;29;20049;-87
2022/05/12 07:27:16;;;;;;;6.40;3.58;;;;;;;;;;4855196;29;20069;-83
2022/05/12 07:29:41;;;;;;;6.80;3.88;;;;;;;;;;4841344;29;20485;-85
2022/05/12 07:32:08;;;;;;;7.78;3.75;;;;;;;;;;4850515;29;20041;-90
2022/05/12 07:34:33;;;;;;;8.13;3.85;;;;;;;;;;4837772;29;20034;-84
2022/05/12 07:36:59;;;;;;;8.80;3.65;;;;;;;;;;4844512;29;20033;-83
2022/05/12 07:39:28;;;;;;;7.18;3.65;;;;;;;;;;4852128;29;20040;-86
2022/05/12 07:41:56;;;;;;;8.27;3.65;;;;;;;;;;4837101;29;20026;-88
2022/05/12 07:44:22;;;;;;;7.25;3.75;;;;;;;;;;4839578;29;21909;-89
2022/05/12 07:46:49;;;;;;;7.63;4.25;;;;;;;;;;4843246;29;20036;-88
2022/05/12 07:49:15;;;;;;;9.00;3.78;;;;;;;;;;4852022;29;20124;-87
2022/05/12 07:51:41;;;;;;;8.07;3.70;;;;;;;;;;4839342;29;20041;-86
2022/05/12 07:54:06;;;;;;;6.80;3.63;;;;;;;;;;4832635;29;20477;-88
2022/05/12 07:56:31;;;;;;;7.43;3.70;;;;;;;;;;4837441;29;20508;-91
2022/05/12 07:58:58;;;;;;;5.10;3.35;;;;;;;;;;4852148;29;20552;-89
2022/05/12 08:01:25;;;;;;;7.90;3.47;;;;;;;;;;4851588;29;20038;-84
2022/05/12 08:03:51;;;;;;;4.85;2.53;;;;;;;;;;4852462;29;20033;-88
2022/05/12 08:06:17;;;;;;;4.97;3.08;;;;;;;;;;4851131;29;20029;-85
2022/05/12 08:08:44;;;;;;;5.65;3.15;;;;;;;;;;4854478;29;20040;-86
2022/05/12 08:11:10;;;;;;;5.25;2.53;;;;;;;;;;4851869;29;20373;-86
2022/05/12 08:13:37;;;;;;;7.60;3.10;;;;;;;;;;4837396;29;20030;-84
2022/05/12 08:16:04;;;;;;;5.80;2.92;;;;;;;;;;4839802;29;20044;-90
2022/05/12 08:18:31;;;;;;;5.25;2.50;;;;;;;;;;4839309;29;20041;-84
2022/05/12 08:20:57;;;;;;;4.85;2.30;;;;;;;;;;4839042;29;20022;-90
2022/05/12 08:23:22;;;;;;;6.18;2.50;;;;;;;;;;4837141;29;20049;-89
2022/05/12 08:25:49;;;;;;;5.95;2.80;;;;;;;;;;4855965;29;20052;-84
2022/05/12 08:28:16;;;;;;;6.65;2.80;;;;;;;;;;4828294;29;20128;-84
2022/05/12 08:30:46;;;;;;;5.45;2.85;;;;;;;;;;4842225;29;20120;-83
2022/05/12 08:33:12;;;;;;;4.95;2.75;;;;;;;;;;4842280;29;20046;-90
2022/05/12 08:35:39;;;;;;;5.78;2.95;;;;;;;;;;4837802;29;20059;-83
2022/05/12 08:38:05;;;;;;;3.85;2.28;;;;;;;;;;4840349;29;20489;-84
2022/05/12 08:40:35;;;;;;;6.15;2.50;;;;;;;;;;4851906;29;20556;-91
2022/05/12 08:43:22;;;;;;;5.13;2.50;;;;;;;;;;4836455;29;20025;-85
2022/05/12 08:45:50;;;;;;;5.40;2.83;;;;;;;;;;4853371;29;20029;-91
2022/05/12 08:48:16;;;;;;;4.93;2.53;;;;;;;;;;4841560;29;20025;-84
2022/05/12 08:50:42;;;;;;;5.15;2.22;;;;;;;;;;4856149;29;20038;-90
2022/05/12 08:53:15;;;;;;;5.15;2.20;;;;;;;;;;4852294;29;20476;-83
2022/05/12 08:55:49;;;;;;;3.20;2.10;;;;;;;;;;4851882;29;20121;-83
2022/05/12 08:58:22;;;;;;;4.25;1.75;;;;;;;;;;4851226;29;20033;-91
2022/05/12 09:01:07;;;;;;;5.57;1.67;;;;;;;;;;4834238;29;20064;-82
2022/05/12 09:03:50;;;;;;;3.33;1.88;;;;;;;;;;4837418;29;20449;-84
2022/05/12 09:06:23;;;;;;;3.28;1.65;;;;;;;;;;4848499;29;20126;-91
2022/05/12 09:09:03;;;;;;;4.85;2.00;;;;;;;;;;4851353;29;20065;-82
2022/05/12 09:11:51;;;;;;;4.22;1.63;;;;;;;;;;4850792;29;20041;-83
2022/05/12 09:14:33;;;;;;;4.28;1.90;;;;;;;;;;4851638;29;20065;-82
2022/05/12 09:16:59;;;;;;;3.58;1.55;;;;;;;;;;4833232;29;20485;-91
2022/05/12 09:19:27;;;;;;;3.95;1.50;;;;;;;;;;4837378;29;20507;-82
2022/05/12 09:21:54;;;;;;;3.03;1.60;;;;;;;;;;4847571;29;20041;-88
2022/05/12 09:24:20;;;;;;;3.90;1.60;;;;;;;;;;4847674;29;20033;-83
2022/05/12 09:26:52;;;;;;;2.35;1.25;;;;;;;;;;4830710;29;20540;-82
2022/05/12 09:29:27;;;;;;;3.05;1.50;;;;;;;;;;4833100;29;20863;-82
2022/05/12 09:31:54;;;;;;;2.25;1.20;;;;;;;;;;4849001;29;20065;-90
2022/05/12 09:34:25;;;;;;;3.08;1.05;;;;;;;;;;4841836;29;20054;-89
2022/05/12 09:36:51;;;;;;;3.45;1.30;;;;;;;;;;4850595;29;20034;-82
2022/05/12 09:39:38;;;;;;;2.70;1.00;;;;;;;;;;4831209;29;20507;-87
2022/05/12 09:42:07;;;;;;;3.88;1.30;;;;;;;;;;4852405;29;20038;-89
2022/05/12 09:44:33;;;;;;;4.28;1.42;;;;;;;;;;4850217;29;20060;-88
2022/05/12 09:47:11;;;;;;;1.90;1.27;;;;;;;;;;4848347;29;20068;-90
2022/05/12 09:49:43;;;;;;;4.35;1.30;;;;;;;;;;4846889;29;20042;-88
2022/05/12 09:52:34;;;;;;;5.03;1.30;;;;;;;;;;4834577;29;20025;-87
2022/05/12 09:55:12;;;;;;;3.17;1.48;;;;;;;;;;4830973;29;20041;-81
2022/05/12 09:57:55;;;;;;;4.55;1.80;;;;;;;;;;4837839;29;20496;-82
2022/05/12 10:00:34;;;;;;;3.10;1.30;;;;;;;;;;4852274;29;20032;-90
2022/05/12 10:09:16;;;;;;;2.80;1.20;;;;;;;;;;4856441;29;20045;-82
2022/05/12 10:12:06;;;;;;;2.35;1.10;;;;;;;;;;4851931;29;20401;-89
2022/05/12 10:14:53;;;;;;;2.63;1.13;;;;;;;;;;4854541;29;20040;-81
2022/05/12 10:17:28;;;;;;;3.45;1.20;;;;;;;;;;4843776;29;20038;-82
2022/05/12 10:19:54;;;;;;;3.42;1.42;;;;;;;;;;4856193;29;20042;-88
2022/05/12 10:22:47;;;;;;;3.38;1.25;;;;;;;;;;4855523;29;20049;-89
2022/05/12 10:25:39;;;;;;;3.00;1.13;;;;;;;;;;4853840;29;20099;-88
2022/05/12 10:28:14;;;;;;;2.60;0.90;;;;;;;;;;4862207;29;20029;-87
2022/05/12 10:30:48;;;;;;;2.13;1.10;;;;;;;;;;4838401;29;20082;-90
2022/05/12 10:33:20;;;;;;;2.15;1.02;;;;;;;;;;4850531;29;20064;-82
2022/05/12 10:35:59;;;;;;;3.13;1.25;;;;;;;;;;4834933;29;20084;-82
2022/05/12 10:38:40;;;;;;;2.75;0.88;;;;;;;;;;4850119;29;20029;-81
2022/05/12 10:41:27;;;;;;;4.47;1.45;;;;;;;;;;4838982;29;20069;-82
2022/05/12 10:44:04;;;;;;;2.95;1.38;;;;;;;;;;4841099;29;20179;-89
2022/05/12 10:46:59;;;;;;;2.20;1.30;;;;;;;;;;4837230;29;20113;-82
2022/05/12 10:49:34;;;;;;;2.38;1.10;;;;;;;;;;4844795;29;20047;-87
2022/05/12 10:52:20;;;;;;;1.23;0.77;;;;;;;;;;4843429;29;20405;-86
2022/05/12 10:55:04;;;;;;;2.80;0.98;;;;;;;;;;4850066;29;20664;-90
2022/05/12 10:57:46;;;;;;;3.45;1.20;;;;;;;;;;4856596;29;20047;-82
2022/05/12 11:00:51;;;;;;;2.85;1.00;;;;;;;;;;4851515;29;20033;-81
2022/05/12 11:03:24;;;;;;;3.28;1.10;;;;;;;;;;4840372;29;20042;-81
2022/05/12 11:05:55;;;;;;;2.25;1.00;;;;;;;;;;4833314;29;20063;-87
2022/05/12 11:08:42;;;;;;;1.38;0.88;;;;;;;;;;4839433;29;20060;-88
2022/05/12 11:11:12;;;;;;;2.17;0.77;;;;;;;;;;4834005;29;20128;-89
2022/05/12 11:13:52;;;;;;;1.90;0.90;;;;;;;;;;4843080;29;20037;-86
2022/05/12 11:16:35;;;;;;;3.25;1.10;;;;;;;;;;4857571;29;20025;-86
2022/05/12 11:19:20;;;;;;;1.20;0.88;;;;;;;;;;4852743;29;20033;-87
2022/05/12 11:21:55;;;;;;;3.70;1.08;;;;;;;;;;4852104;29;20128;-82
2022/05/12 11:24:43;;;;;;;3.40;1.00;;;;;;;;;;4857416;29;20116;-88
2022/05/12 11:27:14;;;;;;;2.78;1.10;;;;;;;;;;4853600;29;20040;-87
2022/05/12 11:30:01;;;;;;;3.17;1.27;;;;;;;;;;4843513;29;20499;-80
2022/05/12 11:32:54;;;;;;;3.50;1.33;;;;;;;;;;4855293;29;20145;-90
2022/05/12 11:35:29;;;;;;;3.37;1.13;;;;;;;;;;4852951;29;20071;-80
2022/05/12 11:38:04;;;;;;;2.28;1.15;;;;;;;;;;4847367;29;20037;-89
2022/05/12 11:40:48;;;;;;;2.13;1.08;;;;;;;;;;4835715;29;20026;-90
2022/05/12 11:47:00;;;;;;;2.50;1.10;;;;;;;;;;4855848;29;20044;-87
2022/05/12 11:50:04;;;;;;;3.15;1.20;;;;;;;;;;4843687;29;20025;-90
2022/05/12 11:53:16;;;;;;;3.58;1.40;;;;;;;;;;4858888;29;20504;-80
2022/05/12 11:56:08;;;;;;;2.72;1.25;;;;;;;;;;4853583;29;20047;-80
2022/05/12 11:58:38;;;;;;;2.95;1.10;;;;;;;;;;4843432;29;20036;-80
2022/05/12 12:01:31;;;;;;;2.83;1.40;;;;;;;;;;4851398;29;20193;-82
2022/05/12 12:03:59;;;;;;;4.47;1.37;;;;;;;;;;4835387;29;20118;-87
2022/05/12 12:06:41;;;;;;;3.22;1.20;;;;;;;;;;4850561;29;20048;-88
2022/05/12 12:09:25;;;;;;;2.47;1.20;;;;;;;;;;4855945;29;20036;-81
2022/05/12 12:11:50;;;;;;;2.50;1.20;;;;;;;;;;4851009;29;20300;-89
2022/05/12 12:14:50;;;;;;;2.83;1.10;;;;;;;;;;4836017;29;20029;-81
2022/05/12 12:17:25;;;;;;;5.07;1.33;;;;;;;;;;4843164;29;20108;-80
2022/05/12 12:19:55;;;;;;;3.50;1.35;;;;;;;;;;4843415;29;20026;-89
2022/05/12 12:22:44;;;;;;;3.58;1.38;;;;;;;;;;4854716;29;20029;-80
2022/05/12 12:25:28;;;;;;;2.72;1.30;;;;;;;;;;4849187;29;20033;-83
2022/05/12 12:27:53;;;;;;;4.70;1.15;;;;;;;;;;4849761;29;20178;-89
2022/05/12 12:30:31;;;;;;;5.05;1.40;;;;;;;;;;4840068;29;20112;-90
2022/05/12 12:33:15;;;;;;;3.55;1.23;;;;;;;;;;4852425;29;20049;-89
2022/05/12 12:36:17;;;;;;;2.22;1.23;;;;;;;;;;4855326;29;20029;-89
2022/05/12 12:38:48;;;;;;;3.30;1.30;;;;;;;;;;4840124;29;20037;-80
2022/05/12 12:41:29;;;;;;;2.20;1.45;;;;;;;;;;4841605;29;20085;-87
2022/05/12 12:44:23;;;;;;;2.20;1.33;;;;;;;;;;4833425;29;20033;-90
2022/05/12 12:47:00;;;;;;;4.28;1.23;;;;;;;;;;4846056;29;20086;-80
2022/05/12 12:49:43;;;;;;;1.95;1.30;;;;;;;;;;4852531;29;20112;-80
2022/05/12 12:52:11;;;;;;;2.63;1.38;;;;;;;;;;4847452;29;20065;-80
2022/05/12 12:57:43;;;;;;;3.88;1.40;;;;;;;;;;4853052;29;20093;-89
2022/05/12 13:00:15;;;;;;;2.95;1.17;;;;;;;;;;4851941;29;20030;-79
2022/05/12 13:02:45;;;;;;;2.80;1.40;;;;;;;;;;4848342;29;20034;-79
2022/05/12 13:05:12;;;;;;;4.10;1.70;;;;;;;;;;4853399;29;20052;-80
2022/05/12 13:07:40;;;;;;;2.70;1.20;;;;;;;;;;4838151;29;20021;-88
2022/05/12 13:10:16;;;;;;;4.35;1.73;;;;;;;;;;4837430;29;20034;-81
2022/05/12 13:12:50;;;;;;;1.52;1.10;;;;;;;;;;4852143;29;20029;-79
2022/05/12 13:15:18;;;;;;;3.83;1.20;;;;;;;;;;4854772;29;20040;-81
2022/05/12 13:17:49;;;;;;;1.70;1.20;;;;;;;;;;4846479;29;20712;-80
2022/05/12 13:20:21;;;;;;;3.40;1.23;;;;;;;;;;4852481;29;20026;-91
2022/05/12 13:23:04;;;;;;;2.30;1.50;;;;;;;;;;4838559;29;20503;-79
2022/05/12 13:25:33;;;;;;;2.00;1.20;;;;;;;;;;4848080;29;20572;-88
2022/05/12 13:28:03;;;;;;;3.65;1.50;;;;;;;;;;4849730;29;20064;-88
2022/05/12 13:30:44;;;;;;;3.70;1.73;;;;;;;;;;4839286;29;20093;-89
2022/05/12 13:33:30;;;;;;;1.88;1.08;;;;;;;;;;4853430;29;20053;-79
2022/05/12 13:36:04;;;;;;;3.50;1.50;;;;;;;;;;4844860;29;20030;-90
2022/05/12 13:38:44;;;;;;;3.75;1.75;;;;;;;;;;4839359;29;20125;-90
2022/05/12 13:41:21;;;;;;;3.10;1.73;;;;;;;;;;4841084;29;20038;-87
2022/05/12 13:43:51;;;;;;;2.50;1.40;;;;;;;;;;4832913;29;20029;-85
2022/05/12 13:46:16;;;;;;;3.00;1.83;;;;;;;;;;4854242;29;20413;-80
2022/05/12 13:49:09;;;;;;;1.85;1.35;;;;;;;;;;4835901;29;20029;-86
2022/05/12 13:52:24;;;;;;;5.10;1.70;;;;;;;;;;4854248;29;20033;-80
2022/05/12 13:54:55;;;;;;;3.05;1.48;;;;;;;;;;4839427;29;20033;-80
2022/05/12 13:57:33;;;;;;;3.15;1.33;;;;;;;;;;4838093;29;20040;-90
2022/05/12 14:00:26;;;;;;;4.18;1.60;;;;;;;;;;4849924;29;20568;-79
2022/05/12 14:02:55;;;;;;;3.17;2.00;;;;;;;;;;4811421;29;20559;-80
2022/05/12 14:05:27;;;;;;;4.15;1.60;;;;;;;;;;4850718;29;20922;-79
2022/05/12 14:08:04;;;;;;;3.35;1.77;;;;;;;;;;4847959;29;20030;-79
2022/05/12 14:10:35;;;;;;;2.50;1.60;;;;;;;;;;4854204;29;20022;-80
2022/05/12 14:21:27;;;;;;;3.30;1.88;;;;;;;;;;4850197;29;20025;-82
2022/05/12 14:23:53;;;;;;;;;;;;;;;;;;4843156;29;20438;-80
2022/05/12 14:26:19;;;;;;;4.82;1.80;;;;;;;;;;4832013;29;19920;-86
2022/05/12 14:28:44;;;;;;;4.60;1.85;;;;;;;;;;4832090;29;20045;-87
2022/05/12 14:31:10;;;;;;;3.10;1.80;;;;;;;;;;4838519;29;20568;-87
2022/05/12 14:33:36;;;;;;;4.72;1.80;;;;;;;;;;4831954;29;20076;-79
2022/05/12 14:36:02;;;;;;;3.08;1.88;;;;;;;;;;4848828;29;20030;-80
2022/05/12 14:38:27;;;;;;;3.67;2.10;;;;;;;;;;4833927;29;20033;-79
2022/05/12 14:40:53;;;;;;;3.70;2.00;;;;;;;;;;4849035;29;20045;-80
2022/05/12 14:43:19;;;;;;;3.28;1.90;;;;;;;;;;4841476;29;20157;-88
2022/05/12 14:45:48;;;;;;;3.65;2.00;;;;;;;;;;4838003;29;20128;-81
2022/05/12 14:48:13;;;;;;;4.30;2.10;;;;;;;;;;4850410;29;20045;-86
2022/05/12 14:50:39;;;;;;;3.83;2.30;;;;;;;;;;4847121;29;20041;-87
2022/05/12 14:53:08;;;;;;;4.18;1.83;;;;;;;;;;4851068;29;20029;-86
2022/05/12 14:55:38;;;;;;;4.13;2.08;;;;;;;;;;4853683;29;20037;-79
2022/05/12 14:58:04;;;;;;;4.40;2.50;;;;;;;;;;4837940;29;20029;-87
2022/05/12 15:00:31;;;;;;;4.72;2.53;;;;;;;;;;4852927;29;20033;-88
2022/05/12 15:02:57;;;;;;;4.25;2.13;;;;;;;;;;4832966;29;20030;-86
2022/05/12 15:05:24;;;;;;;3.90;2.00;;;;;;;;;;4852905;29;20041;-78
2022/05/12 15:07:49;;;;;;;4.93;2.40;;;;;;;;;;4853669;29;20480;-79
2022/05/12 15:10:15;;;;;;;4.40;2.47;;;;;;;;;;4854774;29;20041;-84
2022/05/12 15:12:41;;;;;;;3.85;2.20;;;;;;;;;;4856312;29;20133;-93
2022/05/12 15:15:08;;;;;;;6.43;2.40;;;;;;;;;;4833385;29;20029;-86
2022/05/12 15:17:34;;;;;;;4.13;2.38;;;;;;;;;;4849556;29;20789;-80
2022/05/12 15:20:02;;;;;;;3.33;2.13;;;;;;;;;;4854607;29;20598;-86
2022/05/12 15:22:31;;;;;;;3.60;2.10;;;;;;;;;;4849549;29;20098;-80
2022/05/12 15:24:56;;;;;;;3.25;2.20;;;;;;;;;;4854480;29;20037;-81
2022/05/12 15:27:29;;;;;;;3.72;1.80;;;;;;;;;;4835508;29;20397;-86
2022/05/12 15:29:56;;;;;;;3.65;1.92;;;;;;;;;;4848641;29;20029;-86
2022/05/12 15:32:22;;;;;;;4.75;2.40;;;;;;;;;;4836773;29;20053;-89
2022/05/12 15:34:48;;;;;;;4.30;2.10;;;;;;;;;;4838319;29;20026;-87